createdAt,value
2023-07-17T00:02:04.520Z,16.88
2023-07-17T00:04:59.936Z,16.86
2023-07-17T00:07:55.824Z,16.83
2023-07-17T00:10:45.829Z,16.82
2023-07-17T00:13:33.980Z,16.78
2023-07-17T00:16:22.343Z,16.74
2023-07-17T00:19:15.004Z,16.71
2023-07-17T00:22:04.713Z,16.68
2023-07-17T00:24:54.083Z,16.67
2023-07-17T00:27:41.820Z,16.65
2023-07-17T00:30:29.483Z,16.64
2023-07-17T00:33:22.780Z,16.62
2023-07-17T00:36:11.027Z,16.59
2023-07-17T00:38:59.226Z,16.54
2023-07-17T00:41:50.540Z,16.49
2023-07-17T00:44:39.677Z,16.45
2023-07-17T00:47:31.185Z,16.43
2023-07-17T00:50:23.039Z,16.40
2023-07-17T00:53:11.508Z,16.39
2023-07-17T00:56:02.051Z,16.39
2023-07-17T00:59:02.780Z,16.36
2023-07-17T01:01:58.222Z,16.33
2023-07-17T01:04:48.488Z,16.30
2023-07-17T01:07:38.961Z,16.26
2023-07-17T01:10:27.494Z,16.24
2023-07-17T01:13:15.237Z,16.23
2023-07-17T01:16:05.845Z,16.24
2023-07-17T01:18:54.814Z,16.26
2023-07-17T01:21:59.260Z,16.28
2023-07-17T01:24:49.364Z,16.29
2023-07-17T01:27:37.180Z,16.31
2023-07-17T01:30:25.575Z,16.31
2023-07-17T01:33:13.192Z,16.31
2023-07-17T01:36:03.417Z,16.33
2023-07-17T01:38:51.614Z,16.35
2023-07-17T01:41:39.891Z,16.37
2023-07-17T01:44:29.497Z,16.41
2023-07-17T01:47:17.956Z,16.45
2023-07-17T01:50:07.412Z,16.43
2023-07-17T01:52:55.569Z,16.40
2023-07-17T01:55:48.666Z,16.37
2023-07-17T01:58:37.368Z,16.36
2023-07-17T02:01:25.417Z,16.33
2023-07-17T02:04:14.469Z,16.32
2023-07-17T02:07:02.330Z,16.31
2023-07-17T02:09:50.199Z,16.31
2023-07-17T02:12:43.150Z,16.33
2023-07-17T02:15:31.118Z,16.37
2023-07-17T02:18:19.118Z,16.42
2023-07-17T02:21:07.092Z,16.46
2023-07-17T02:23:55.038Z,16.49
2023-07-17T02:26:42.595Z,16.50
2023-07-17T02:29:30.935Z,16.52
2023-07-17T02:32:19.187Z,16.55
2023-07-17T02:35:07.867Z,16.58
2023-07-17T02:37:56.766Z,16.62
2023-07-17T02:40:44.546Z,16.65
2023-07-17T02:43:32.616Z,16.68
2023-07-17T02:46:20.351Z,16.71
2023-07-17T02:49:13.192Z,16.73
2023-07-17T02:52:01.464Z,16.72
2023-07-17T02:54:49.293Z,16.71
2023-07-17T02:57:38.185Z,16.71
2023-07-17T03:00:26.721Z,16.73
2023-07-17T03:03:15.263Z,16.78
2023-07-17T03:06:05.552Z,16.85
2023-07-17T03:08:53.556Z,16.92
2023-07-17T03:11:41.668Z,17.00
2023-07-17T03:14:30.635Z,17.07
2023-07-17T03:17:18.404Z,17.10
2023-07-17T03:20:10.639Z,17.12
2023-07-17T03:22:58.732Z,17.12
2023-07-17T03:25:46.693Z,17.14
2023-07-17T03:28:36.346Z,17.17
2023-07-17T03:31:24.238Z,17.23
2023-07-17T03:34:12.947Z,17.28
2023-07-17T03:37:04.264Z,17.36
2023-07-17T03:39:52.418Z,17.41
2023-07-17T03:42:40.202Z,17.47
2023-07-17T03:45:33.466Z,17.50
2023-07-17T03:48:22.054Z,17.50
2023-07-17T03:51:10.529Z,17.51
2023-07-17T03:53:58.739Z,17.51
2023-07-17T03:56:47.315Z,17.50
2023-07-17T03:59:56.785Z,17.48
2023-07-17T04:02:48.884Z,17.46
2023-07-17T04:05:43.415Z,17.45
2023-07-17T04:08:31.814Z,17.45
2023-07-17T04:11:20.982Z,17.47
2023-07-17T04:14:12.709Z,17.47
2023-07-17T04:17:05.294Z,17.46
2023-07-17T04:20:07.798Z,17.48
2023-07-17T04:23:01.668Z,17.53
2023-07-17T04:25:54.348Z,17.63
2023-07-17T04:28:43.693Z,17.77
2023-07-17T04:31:35.252Z,17.94
2023-07-17T04:34:23.877Z,18.15
2023-07-17T04:37:11.911Z,18.37
2023-07-17T04:40:00.859Z,18.59
2023-07-17T04:42:54.743Z,18.83
2023-07-17T04:45:45.948Z,19.10
2023-07-17T04:48:38.902Z,19.42
2023-07-17T04:51:27.171Z,19.78
2023-07-17T04:54:15.429Z,20.22
2023-07-17T04:57:08.092Z,20.77
2023-07-17T04:59:56.200Z,21.30
2023-07-17T05:02:45.998Z,21.87
2023-07-17T05:05:34.543Z,22.42
2023-07-17T05:08:27.639Z,22.98
2023-07-17T05:11:16.444Z,23.50
2023-07-17T05:14:07.524Z,23.91
2023-07-17T05:16:57.304Z,24.24
2023-07-17T05:19:45.700Z,24.64
2023-07-17T05:22:35.283Z,25.07
2023-07-17T05:25:26.780Z,25.46
2023-07-17T05:28:15.801Z,25.91
2023-07-17T05:31:05.849Z,26.32
2023-07-17T05:33:59.748Z,26.55
2023-07-17T05:36:49.297Z,26.89
2023-07-17T05:39:37.146Z,27.33
2023-07-17T05:42:25.319Z,27.38
2023-07-17T05:45:13.843Z,27.35
2023-07-17T05:48:02.049Z,27.40
2023-07-17T05:50:50.462Z,27.44
2023-07-17T05:53:38.856Z,27.37
2023-07-17T05:56:27.562Z,27.29
2023-07-17T05:59:16.621Z,27.40
2023-07-17T06:02:09.373Z,27.48
2023-07-17T06:05:02.254Z,27.81
2023-07-17T06:07:50.403Z,28.11
2023-07-17T06:10:39.296Z,28.51
2023-07-17T06:13:27.355Z,28.92
2023-07-17T06:16:15.161Z,29.26
2023-07-17T06:19:05.549Z,29.60
2023-07-17T06:21:55.763Z,30.15
2023-07-17T06:24:47.020Z,30.75
2023-07-17T06:27:38.151Z,31.13
2023-07-17T06:30:29.021Z,31.24
2023-07-17T06:33:16.860Z,31.42
2023-07-17T06:36:05.441Z,31.22
2023-07-17T06:38:53.813Z,31.35
2023-07-17T06:41:41.834Z,31.99
2023-07-17T06:44:31.147Z,33.00
2023-07-17T06:47:36.701Z,33.64
2023-07-17T06:50:31.262Z,34.29
2023-07-17T06:53:22.419Z,34.90
2023-07-17T06:56:13.110Z,35.74
2023-07-17T06:59:02.663Z,36.43
2023-07-17T07:01:50.673Z,36.97
2023-07-17T07:04:38.349Z,37.47
2023-07-17T07:07:28.344Z,37.90
2023-07-17T07:10:16.496Z,38.27
2023-07-17T07:13:04.494Z,38.65
2023-07-17T07:15:53.135Z,39.04
2023-07-17T07:18:46.338Z,39.12
2023-07-17T07:21:39.206Z,39.15
2023-07-17T07:24:29.643Z,39.70
2023-07-17T07:27:21.018Z,39.48
2023-07-17T07:30:10.229Z,38.02
2023-07-17T07:33:01.919Z,36.36
2023-07-17T07:35:51.797Z,34.99
2023-07-17T07:38:40.221Z,34.42
2023-07-17T07:41:32.227Z,35.03
2023-07-17T07:44:21.531Z,35.95
2023-07-17T07:47:09.551Z,35.87
2023-07-17T07:49:58.055Z,35.71
2023-07-17T07:52:46.263Z,36.47
2023-07-17T07:55:34.415Z,37.22
2023-07-17T07:58:22.765Z,37.40
2023-07-17T08:01:11.386Z,38.00
2023-07-17T08:04:01.217Z,38.29
2023-07-17T08:06:51.050Z,38.68
2023-07-17T08:09:41.008Z,39.14
2023-07-17T08:12:34.202Z,39.70
2023-07-17T08:15:26.500Z,39.82
2023-07-17T08:18:22.555Z,40.10
2023-07-17T08:21:11.408Z,40.27
2023-07-17T08:24:02.515Z,40.54
2023-07-17T08:27:03.773Z,40.45
2023-07-17T08:29:55.108Z,40.89
2023-07-17T08:32:48.929Z,40.62
2023-07-17T08:35:39.956Z,39.88
2023-07-17T08:38:31.084Z,38.67
2023-07-17T08:41:23.720Z,38.44
2023-07-17T08:44:16.357Z,37.55
2023-07-17T08:47:09.756Z,37.23
2023-07-17T08:50:05.631Z,37.53
2023-07-17T08:52:59.528Z,37.20
2023-07-17T08:55:57.334Z,37.51
2023-07-17T08:58:53.842Z,38.08
2023-07-17T09:01:43.548Z,38.42
2023-07-17T09:04:37.792Z,37.96
2023-07-17T09:07:28.901Z,36.70
2023-07-17T09:10:22.473Z,35.26
2023-07-17T09:13:11.316Z,33.43
2023-07-17T09:16:21.728Z,32.28
2023-07-17T09:19:09.861Z,31.03
2023-07-17T09:22:05.934Z,30.34
2023-07-17T09:24:53.864Z,30.56
2023-07-17T09:27:55.099Z,29.70
2023-07-17T09:30:43.258Z,29.59
2023-07-17T09:33:37.313Z,29.28
2023-07-17T09:36:25.771Z,29.04
2023-07-17T09:39:15.303Z,29.06
2023-07-17T09:42:03.185Z,30.11
2023-07-17T09:44:53.773Z,31.37
2023-07-17T09:47:42.362Z,31.90
2023-07-17T09:50:31.732Z,32.29
2023-07-17T09:53:21.724Z,33.08
2023-07-17T09:56:15.202Z,33.81
2023-07-17T09:59:15.532Z,34.30
2023-07-17T10:02:12.017Z,34.65
2023-07-17T10:05:02.849Z,34.23
2023-07-17T10:07:54.407Z,34.34
2023-07-17T10:10:43.312Z,34.09
2023-07-17T10:13:31.537Z,34.14
2023-07-17T10:16:20.538Z,34.28
2023-07-17T10:19:09.718Z,34.94
2023-07-17T10:22:00.225Z,34.99
2023-07-17T10:24:49.391Z,35.06
2023-07-17T10:27:45.423Z,35.29
2023-07-17T10:30:39.114Z,35.96
2023-07-17T10:33:36.681Z,35.50
2023-07-17T10:36:44.263Z,34.60
2023-07-17T10:39:32.419Z,33.57
2023-07-17T10:42:21.700Z,32.83
2023-07-17T10:45:12.580Z,32.21
2023-07-17T10:48:01.445Z,31.54
2023-07-17T10:50:56.017Z,31.06
2023-07-17T10:53:48.749Z,30.52
2023-07-17T10:56:49.650Z,29.91
2023-07-17T10:59:38.706Z,29.35
2023-07-17T11:02:28.025Z,29.05
2023-07-17T11:05:16.711Z,28.91
2023-07-17T11:08:09.604Z,29.83
2023-07-17T11:11:00.501Z,30.97
2023-07-17T11:13:52.851Z,30.89
2023-07-17T11:16:43.681Z,30.46
2023-07-17T11:19:35.401Z,30.81
2023-07-17T11:22:31.173Z,31.37
2023-07-17T11:25:25.737Z,31.59
2023-07-17T11:28:15.679Z,31.87
2023-07-17T11:31:04.611Z,32.03
2023-07-17T11:34:06.559Z,32.05
2023-07-17T11:36:55.846Z,31.33
2023-07-17T11:39:43.318Z,30.68
2023-07-17T11:42:51.997Z,30.13
2023-07-17T11:45:41.627Z,29.54
2023-07-17T11:48:42.491Z,28.85
2023-07-17T11:51:30.210Z,28.20
2023-07-17T11:54:18.289Z,27.71
2023-07-17T11:57:06.641Z,27.31
2023-07-17T12:00:06.188Z,26.97
2023-07-17T12:03:01.829Z,26.64
2023-07-17T12:05:49.898Z,26.47
2023-07-17T12:08:38.953Z,26.36
2023-07-17T12:11:27.546Z,26.29
2023-07-17T12:14:16.924Z,26.27
2023-07-17T12:17:05.434Z,26.19
2023-07-17T12:19:53.314Z,25.99
2023-07-17T12:22:43.709Z,25.75
2023-07-17T12:25:32.326Z,25.46
2023-07-17T12:28:21.944Z,25.18
2023-07-17T12:31:11.106Z,24.90
2023-07-17T12:33:59.343Z,24.62
2023-07-17T12:36:49.404Z,24.42
2023-07-17T12:39:37.249Z,24.23
2023-07-17T12:42:26.614Z,24.12
2023-07-17T12:45:16.042Z,24.03
2023-07-17T12:48:08.788Z,23.97
2023-07-17T12:50:59.105Z,23.96
2023-07-17T12:53:49.843Z,24.04
2023-07-17T12:56:37.956Z,24.21
2023-07-17T12:59:26.244Z,24.45
2023-07-17T13:02:14.849Z,24.77
2023-07-17T13:05:03.842Z,25.02
2023-07-17T13:07:52.583Z,25.23
2023-07-17T13:10:41.328Z,25.45
2023-07-17T13:13:29.096Z,25.51
2023-07-17T13:16:18.108Z,25.51
2023-07-17T13:19:06.358Z,25.49
2023-07-17T13:21:55.654Z,25.34
2023-07-17T13:24:44.028Z,25.06
2023-07-17T13:27:32.424Z,24.74
2023-07-17T13:30:20.502Z,24.40
2023-07-17T13:33:09.347Z,23.98
2023-07-17T13:35:59.289Z,23.61
2023-07-17T13:38:47.335Z,23.37
2023-07-17T13:41:49.317Z,23.16
2023-07-17T13:44:37.206Z,23.03
2023-07-17T13:47:25.675Z,23.10
2023-07-17T13:50:14.168Z,23.12
2023-07-17T13:53:04.718Z,23.02
2023-07-17T13:55:52.594Z,22.92
2023-07-17T13:58:43.902Z,22.81
2023-07-17T14:01:31.960Z,22.71
2023-07-17T14:04:19.975Z,22.89
2023-07-17T14:07:10.905Z,23.14
2023-07-17T14:10:02.081Z,23.20
2023-07-17T14:12:50.393Z,23.15
2023-07-17T14:15:38.905Z,23.05
2023-07-17T14:18:32.845Z,23.22
2023-07-17T14:21:23.027Z,23.43
2023-07-17T14:24:13.464Z,23.44
2023-07-17T14:27:01.562Z,23.56
2023-07-17T14:29:56.764Z,23.63
2023-07-17T14:32:45.826Z,23.79
2023-07-17T14:35:50.607Z,23.98
2023-07-17T14:38:40.179Z,24.18
2023-07-17T14:41:31.313Z,24.32
2023-07-17T14:44:21.704Z,24.41
2023-07-17T14:47:09.750Z,24.50
2023-07-17T14:49:59.056Z,24.52
2023-07-17T14:52:47.889Z,24.50
2023-07-17T14:55:41.971Z,24.49
2023-07-17T14:58:31.124Z,24.54
2023-07-17T15:01:20.122Z,24.52
2023-07-17T15:04:09.134Z,24.40
2023-07-17T15:07:24.429Z,24.40
2023-07-17T15:10:21.596Z,24.46
2023-07-17T15:13:10.138Z,24.33
2023-07-17T15:15:58.789Z,24.16
2023-07-17T15:18:47.007Z,23.97
2023-07-17T15:21:36.005Z,23.90
2023-07-17T15:24:25.459Z,23.86
2023-07-17T15:27:15.650Z,23.82
2023-07-17T15:30:07.743Z,23.75
2023-07-17T15:33:00.799Z,23.69
2023-07-17T15:35:49.826Z,23.63
2023-07-17T15:38:40.533Z,23.60
2023-07-17T15:41:32.975Z,23.52
2023-07-17T15:44:23.092Z,23.44
2023-07-17T15:47:13.830Z,23.39
2023-07-17T15:50:05.566Z,23.35
2023-07-17T15:52:53.781Z,23.24
2023-07-17T15:55:42.270Z,23.14
2023-07-17T15:58:36.170Z,23.05
2023-07-17T16:01:35.116Z,23.00
2023-07-17T16:04:25.275Z,22.96
2023-07-17T16:07:17.357Z,22.96
2023-07-17T16:10:14.932Z,22.94
2023-07-17T16:13:09.665Z,22.85
2023-07-17T16:15:57.732Z,22.82
2023-07-17T16:18:45.621Z,22.83
2023-07-17T16:21:33.678Z,22.93
2023-07-17T16:24:28.971Z,23.10
2023-07-17T16:27:17.236Z,23.27
2023-07-17T16:30:08.096Z,23.37
2023-07-17T16:32:55.938Z,23.40
2023-07-17T16:35:48.090Z,23.35
2023-07-17T16:38:36.530Z,23.41
2023-07-17T16:44:21.364Z,23.32
2023-07-17T16:47:12.516Z,23.12
2023-07-17T16:49:59.365Z,22.97
2023-07-17T16:52:46.612Z,22.79
2023-07-17T16:55:34.118Z,22.58
2023-07-17T16:58:23.010Z,22.43
2023-07-17T17:01:10.218Z,22.33
2023-07-17T17:03:58.257Z,22.22
2023-07-17T17:06:46.266Z,22.03
2023-07-17T17:09:33.360Z,21.88
2023-07-17T17:12:22.493Z,21.83
2023-07-17T17:15:10.478Z,21.71
2023-07-17T17:18:00.968Z,21.58
2023-07-17T17:20:50.803Z,21.24
2023-07-17T17:23:37.860Z,20.57
2023-07-17T17:26:25.425Z,20.14
2023-07-17T17:29:13.894Z,19.81
2023-07-17T17:32:01.470Z,19.53
2023-07-17T17:34:48.701Z,19.36
2023-07-17T17:37:37.568Z,19.26
2023-07-17T17:40:24.901Z,19.20
2023-07-17T17:43:12.407Z,19.18
2023-07-17T17:46:02.524Z,19.12
2023-07-17T17:48:51.890Z,19.06
2023-07-17T17:51:39.554Z,19.02
2023-07-17T17:54:31.481Z,18.98
2023-07-17T17:57:19.097Z,18.97
2023-07-17T18:00:12.760Z,18.97
2023-07-17T18:03:10.623Z,18.89
2023-07-17T18:05:57.781Z,18.86
2023-07-17T18:08:44.462Z,18.82
2023-07-17T18:11:34.285Z,18.77
2023-07-17T18:14:22.881Z,18.71
2023-07-17T18:17:12.485Z,18.69
2023-07-17T18:26:37.036Z,18.06
2023-07-17T18:29:25.377Z,17.89
2023-07-17T18:32:12.393Z,17.78
2023-07-17T18:35:00.115Z,17.82
2023-07-17T18:37:46.701Z,17.85
2023-07-17T18:40:35.673Z,17.81
2023-07-17T18:43:22.442Z,17.73
2023-07-17T18:46:09.937Z,17.62
2023-07-17T18:49:04.064Z,17.61
2023-07-17T18:51:56.853Z,17.58
2023-07-17T18:54:43.544Z,17.60
2023-07-17T18:57:31.651Z,17.59
2023-07-17T19:00:23.362Z,17.44
2023-07-17T19:03:10.843Z,17.23
2023-07-17T19:06:00.329Z,17.04
2023-07-17T19:08:48.665Z,16.85
2023-07-17T19:11:35.489Z,16.75
2023-07-17T19:14:22.053Z,16.66
2023-07-17T19:17:08.953Z,16.53
2023-07-17T19:19:55.500Z,16.42
2023-07-17T19:22:42.455Z,16.30
2023-07-17T19:25:36.873Z,16.21
2023-07-17T19:28:25.190Z,16.11
2023-07-17T19:31:13.473Z,16.08
2023-07-17T19:34:00.397Z,16.03
2023-07-17T19:36:47.237Z,16.01
2023-07-17T19:39:34.391Z,16.00
2023-07-17T19:42:20.783Z,15.99
2023-07-17T19:45:20.449Z,15.97
2023-07-17T19:48:12.036Z,15.93
2023-07-17T19:51:02.518Z,15.89
2023-07-17T19:53:50.798Z,15.87
2023-07-17T19:56:40.392Z,15.84
2023-07-17T19:59:31.416Z,15.85
2023-07-17T20:02:18.521Z,15.82
2023-07-17T20:05:07.589Z,15.84
2023-07-17T20:07:55.174Z,15.83
2023-07-17T20:10:42.366Z,15.83
2023-07-17T20:13:35.283Z,15.83
2023-07-17T20:16:22.546Z,15.82
2023-07-17T20:19:10.203Z,15.79
2023-07-17T20:22:00.283Z,15.75
2023-07-17T20:24:48.991Z,15.71
2023-07-17T20:27:40.468Z,15.67
2023-07-17T20:30:34.143Z,15.65
2023-07-17T20:33:22.282Z,15.66
2023-07-17T20:36:39.699Z,15.68
2023-07-17T20:39:39.095Z,15.71
2023-07-17T20:42:44.833Z,15.74
2023-07-17T20:45:55.508Z,15.74
2023-07-17T20:48:43.424Z,15.75
2023-07-17T20:51:35.604Z,15.75
2023-07-17T20:54:27.493Z,15.77
2023-07-17T20:57:16.177Z,15.77
2023-07-17T21:00:11.028Z,15.75
2023-07-17T21:02:57.795Z,15.73
2023-07-17T21:05:44.682Z,15.73
2023-07-17T21:08:32.073Z,15.71
2023-07-17T21:11:18.560Z,15.73
2023-07-17T21:14:08.522Z,15.76
2023-07-17T21:16:55.110Z,15.80
2023-07-17T21:19:50.976Z,15.82
2023-07-17T21:22:40.764Z,15.83
2023-07-17T21:25:28.426Z,15.86
2023-07-17T21:28:17.599Z,15.89
2023-07-17T21:31:04.568Z,15.92
2023-07-17T21:33:51.109Z,15.95
2023-07-17T21:36:37.521Z,15.98
2023-07-17T21:39:24.857Z,16.01
2023-07-17T21:42:13.885Z,16.02
2023-07-17T21:45:20.450Z,16.04
2023-07-17T21:48:15.206Z,16.05
2023-07-17T21:51:06.944Z,16.06
2023-07-17T21:53:55.216Z,16.06
2023-07-17T21:56:42.271Z,16.04
2023-07-17T21:59:28.962Z,16.00
2023-07-17T22:02:16.960Z,16.00
2023-07-17T22:05:04.534Z,16.00
2023-07-17T22:07:51.266Z,15.97
2023-07-17T22:10:38.266Z,15.93
2023-07-17T22:13:26.100Z,15.89
2023-07-17T22:16:20.599Z,15.87
2023-07-17T22:19:14.398Z,15.84
2023-07-17T22:22:01.337Z,15.82
2023-07-17T22:24:50.328Z,15.80
2023-07-17T22:27:37.823Z,15.79
2023-07-17T22:30:37.566Z,15.78
2023-07-17T22:33:24.371Z,15.79
2023-07-17T22:36:11.011Z,15.78
2023-07-17T22:39:03.559Z,15.79
2023-07-17T22:41:50.719Z,15.79
2023-07-17T22:44:37.492Z,15.77
2023-07-17T22:47:24.670Z,15.79
2023-07-17T22:50:11.557Z,15.79
2023-07-17T22:52:59.861Z,15.78
2023-07-17T22:55:47.262Z,15.77
2023-07-17T22:58:37.330Z,15.77
2023-07-17T23:01:25.510Z,15.74
2023-07-17T23:04:14.685Z,15.71
2023-07-17T23:07:04.964Z,15.71
2023-07-17T23:09:53.597Z,15.70
2023-07-17T23:12:44.015Z,15.69
2023-07-17T23:15:30.794Z,15.68
2023-07-17T23:18:20.352Z,15.68
2023-07-17T23:21:11.104Z,15.65
2023-07-17T23:24:01.145Z,15.63
2023-07-17T23:26:48.146Z,15.58
2023-07-17T23:29:37.120Z,15.54
2023-07-17T23:32:27.092Z,15.53
2023-07-17T23:35:15.919Z,15.49
2023-07-17T23:38:03.159Z,15.45
2023-07-17T23:40:49.614Z,15.43
2023-07-17T23:43:37.560Z,15.43
2023-07-17T23:46:25.125Z,15.44
2023-07-17T23:49:11.687Z,15.42
2023-07-17T23:51:59.257Z,15.39
2023-07-17T23:54:47.687Z,15.35
2023-07-17T23:57:34.386Z,15.34
